Time;durP1;ratioP1;P1;durP2;ratioP2;P2;SDS_P1;SDS_P2;PMS_P1;PMS_P2;Temp;Humidity;BMP_temperature;BMP_pressure;BME280_temperature;BME280_humidity;BME280_pressure;Samples;Min_cycle;Max_cycle;Signal;HPM_P1;HPM_P2
2022/11/14 10:06:01;;;;;;;38.15;19.42;;;;;;;5.18;100.00;101229.97;6219047;22;20020;-92
2022/11/14 10:08:52;;;;;;;41.38;19.92;;;;;;;5.10;100.00;101208.50;6181030;23;20123;-94
2022/11/14 10:11:42;;;;;;;38.40;19.13;;;;;;;5.27;100.00;101229.97;6210370;23;20012;-93
2022/11/14 10:14:27;;;;;;;37.00;18.75;;;;;;;5.24;100.00;101209.44;6184737;23;20009;-93
2022/11/14 10:17:04;;;;;;;;;;;;;;;5.43;100.00;101234.34;6209490;23;20036;-94
2022/11/14 10:19:39;;;;;;;37.45;19.25;;;;;;;5.40;100.00;101213.75;6208075;23;19934;-94
2022/11/14 10:22:11;;;;;;;39.80;19.33;;;;;;;5.55;100.00;101229.22;6199870;23;20009;-94
2022/11/14 10:25:02;;;;;;;40.13;18.70;;;;;;;5.64;100.00;101227.53;6221689;23;20086;-93
2022/11/14 10:27:48;;;;;;;41.65;19.50;;;;;;;5.56;100.00;101201.81;6213524;23;20166;-91
2022/11/14 10:30:17;;;;;;;39.67;19.27;;;;;;;5.61;100.00;101201.81;6153195;23;20080;-93
2022/11/14 10:33:15;;;;;;;38.22;19.02;;;;;;;5.81;100.00;101225.84;6183361;23;20461;-91
2022/11/14 10:35:49;;;;;;;38.78;19.23;;;;;;;5.78;100.00;101207.88;6210900;23;20000;-92
2022/11/14 10:38:23;;;;;;;36.13;18.75;;;;;;;5.91;100.00;101215.63;6210532;23;20431;-93
2022/11/14 10:41:08;;;;;;;41.67;20.20;;;;;;;5.91;100.00;101209.63;6210358;23;20427;-94
2022/11/14 10:43:41;;;;;;;38.67;19.65;;;;;;;6.01;100.00;101211.34;6183488;23;20528;-93
2022/11/14 10:46:43;;;;;;;39.03;19.30;;;;;;;6.08;100.00;101210.47;6185117;23;20007;-95
2022/11/14 10:49:18;;;;;;;43.30;20.63;;;;;;;6.15;100.00;101204.47;6210937;23;20039;-94
2022/11/14 10:51:51;;;;;;;;;;;;;;;6.29;100.00;101209.63;6184155;23;20311;-93
2022/11/14 10:54:29;;;;;;;38.00;19.10;;;;;;;6.22;100.00;101192.47;6208317;23;19911;-93
2022/11/14 10:56:58;;;;;;;42.17;19.83;;;;;;;6.26;100.00;101186.47;6185614;23;20016;-93
2022/11/14 10:59:26;;;;;;;40.22;20.25;;;;;;;6.41;100.00;101198.50;6184124;23;20575;-94
2022/11/14 11:01:57;;;;;;;41.47;21.38;;;;;;;6.44;100.00;101183.00;6185072;23;20436;-93
2022/11/14 11:04:38;;;;;;;40.33;20.23;;;;;;;6.51;100.00;101185.59;6210458;23;20009;-93
2022/11/14 11:07:06;;;;;;;42.30;20.13;;;;;;;6.65;100.00;101191.56;6200205;23;20024;-95
2022/11/14 11:12:46;;;;;;;46.78;22.23;;;;;;;6.70;100.00;101174.38;6243159;23;20083;-92
2022/11/14 11:15:32;;;;;;;43.85;21.48;;;;;;;6.71;100.00;101173.53;6215884;23;20000;-95
2022/11/14 11:18:02;;;;;;;42.35;20.73;;;;;;;6.68;100.00;101144.34;6215392;23;20027;-95
2022/11/14 11:20:36;;;;;;;47.30;22.15;;;;;;;6.89;100.00;101170.03;6216076;23;20091;-94
2022/11/14 11:23:56;;;;;;;44.80;20.90;;;;;;;6.82;100.00;101142.59;6214497;23;20004;-95
2022/11/14 11:26:29;;;;;;;48.95;21.90;;;;;;;7.05;100.00;101155.38;6213314;23;20539;-94
2022/11/14 11:29:04;;;;;;;50.40;22.13;;;;;;;7.12;100.00;101159.63;6209235;23;20008;-94
2022/11/14 11:32:01;;;;;;;47.50;22.25;;;;;;;7.11;100.00;101147.59;6215108;23;20004;-93
2022/11/14 11:34:34;;;;;;;51.00;22.20;;;;;;;7.21;100.00;101130.38;6186762;23;20004;-93
2022/11/14 11:37:33;;;;;;;49.60;23.08;;;;;;;7.53;100.00;101141.34;6218535;23;20023;-95
2022/11/14 11:40:23;;;;;;;51.45;24.13;;;;;;;7.67;100.00;101131.81;6216593;23;20034;-94
2022/11/14 11:43:10;;;;;;;54.10;24.05;;;;;;;7.92;100.00;101135.91;6207670;23;20020;-95
2022/11/14 11:45:38;;;;;;;53.00;25.92;;;;;;;8.14;100.00;101139.16;6214364;23;20023;-95
2022/11/14 11:48:25;;;;;;;53.90;25.75;;;;;;;8.22;100.00;101139.09;6158408;23;20066;-96
2022/11/14 11:50:53;;;;;;;55.55;25.98;;;;;;;8.21;98.84;101132.22;6241211;23;20057;-95
2022/11/14 11:53:47;;;;;;;59.90;26.55;;;;;;;8.33;99.45;101158.81;6214066;23;20444;-94
2022/11/14 11:56:21;;;;;;;58.22;27.02;;;;;;;8.19;98.93;101137.38;6213078;23;20027;-94
2022/11/14 11:59:06;;;;;;;53.17;25.55;;;;;;;8.22;97.63;101152.00;6214596;23;20392;-95
2022/11/14 12:01:31;;;;;;;56.00;26.73;;;;;;;8.17;98.65;101157.22;6212687;23;20008;-92
2022/11/14 12:04:21;;;;;;;61.40;28.10;;;;;;;8.23;98.09;101172.66;5053130;27;20840;-82
2022/11/14 12:06:57;;;;;;;63.78;30.33;;;;;;;8.18;97.86;101182.16;5061742;28;20506;-83
2022/11/14 12:09:35;;;;;;;64.30;29.63;;;;;;;8.08;97.83;101172.78;5067456;28;20024;-83
2022/11/14 12:12:06;;;;;;;60.55;26.92;;;;;;;8.03;97.83;101171.97;5048546;28;20025;-83
2022/11/14 12:14:38;;;;;;;58.67;26.48;;;;;;;7.97;97.60;101182.34;5056123;28;20040;-83
2022/11/14 12:17:25;;;;;;;54.75;26.15;;;;;;;7.96;98.26;101178.03;5058409;28;20037;-83
2022/11/14 12:20:01;;;;;;;56.47;25.55;;;;;;;7.94;98.46;101179.75;5046401;28;20367;-83
2022/11/14 12:22:44;;;;;;;53.13;24.65;;;;;;;7.88;98.19;101178.09;5056171;28;20056;-83
2022/11/14 12:25:30;;;;;;;53.88;24.25;;;;;;;7.87;99.11;101171.22;5023195;28;20041;-83
2022/11/14 12:28:13;;;;;;;54.97;24.38;;;;;;;7.87;99.26;101162.63;5024866;28;20033;-83
2022/11/14 12:30:40;;;;;;;53.65;23.88;;;;;;;7.80;98.55;101166.97;5039352;28;20541;-83
2022/11/14 12:33:29;;;;;;;51.75;23.70;;;;;;;7.81;99.08;101173.84;5024903;28;20028;-83
2022/11/14 12:36:01;;;;;;;50.40;23.35;;;;;;;7.75;98.13;101167.88;5025347;28;20021;-83
2022/11/14 12:38:42;;;;;;;51.92;22.95;;;;;;;7.72;98.77;101173.03;5025801;28;20111;-83
2022/11/14 12:41:08;;;;;;;52.60;23.40;;;;;;;7.72;98.57;101170.47;5024837;28;20192;-83
2022/11/14 12:43:42;;;;;;;50.13;23.17;;;;;;;7.71;97.96;101164.44;5025633;28;20137;-83
2022/11/14 12:46:10;;;;;;;48.25;21.63;;;;;;;7.68;99.27;101156.72;5025266;28;20030;-83
2022/11/14 12:48:44;;;;;;;50.75;22.40;;;;;;;7.68;98.63;101151.56;5027253;28;20025;-83
2022/11/14 12:51:35;;;;;;;53.47;22.75;;;;;;;7.76;99.62;101154.09;5025895;28;20040;-83
2022/11/14 12:54:01;;;;;;;48.08;21.20;;;;;;;7.76;99.60;101141.22;4997913;28;20041;-83
2022/11/14 12:56:29;;;;;;;48.70;21.77;;;;;;;7.80;99.33;101133.41;5021013;28;20442;-83
2022/11/14 12:59:00;;;;;;;44.08;20.25;;;;;;;7.86;99.29;101130.78;5029529;28;20487;-83
2022/11/14 13:01:36;;;;;;;49.05;21.88;;;;;;;7.88;98.04;101123.91;5023923;28;20499;-83
2022/11/14 13:04:21;;;;;;;46.15;21.63;;;;;;;7.88;98.26;101117.88;5021406;28;20034;-83
2022/11/14 13:07:03;;;;;;;48.20;21.33;;;;;;;7.89;99.22;101115.28;5022094;28;21784;-83
2022/11/14 13:09:52;;;;;;;50.10;21.58;;;;;;;7.95;98.60;101119.53;5023410;28;20116;-83
2022/11/14 13:23:46;;;;;;;47.53;21.40;;;;;;;8.35;96.77;101083.88;5012457;28;20040;-83
2022/11/14 13:26:12;;;;;;;47.23;21.67;;;;;;;8.35;96.20;101070.97;5008988;28;20037;-83
2022/11/14 13:28:37;;;;;;;45.63;20.83;;;;;;;8.23;97.14;101068.50;5008190;28;20343;-83
2022/11/14 13:31:32;;;;;;;46.87;21.43;;;;;;;8.14;97.48;101050.50;5009542;28;20030;-83
2022/11/14 13:33:59;;;;;;;46.63;20.92;;;;;;;8.01;96.13;101047.19;4995446;28;20288;-83
2022/11/14 13:36:53;;;;;;;49.20;21.45;;;;;;;7.94;97.29;101036.09;5007699;28;20104;-83
2022/11/14 13:39:50;;;;;;;47.45;21.33;;;;;;;7.83;98.23;101035.34;5009645;28;20030;-83
2022/11/14 13:42:24;;;;;;;48.20;21.63;;;;;;;7.67;97.78;101032.91;5010391;28;20030;-83
2022/11/14 13:44:56;;;;;;;46.55;21.92;;;;;;;7.58;97.72;101044.16;5004867;28;20453;-84
2022/11/14 13:48:09;;;;;;;46.28;21.48;;;;;;;7.51;98.53;101058.81;5012196;28;20026;-83
2022/11/14 13:50:37;;;;;;;52.05;22.50;;;;;;;7.42;98.92;101050.31;5002888;28;20038;-83
2022/11/14 13:53:12;;;;;;;53.13;22.50;;;;;;;7.34;99.07;101047.78;5010136;28;20022;-84
2022/11/14 13:56:03;;;;;;;50.22;22.50;;;;;;;7.36;99.33;101045.22;5010531;28;20522;-83
2022/11/14 13:59:06;;;;;;;50.10;23.23;;;;;;;7.29;99.50;101038.38;4994819;28;20462;-83
2022/11/14 14:02:01;;;;;;;48.22;22.17;;;;;;;7.27;99.72;101053.00;5010138;28;20478;-84
2022/11/14 14:04:39;;;;;;;;;;;;;;;7.30;100.00;101045.25;5013985;28;20081;-84
2022/11/14 14:07:15;;;;;;;48.35;22.45;;;;;;;7.22;99.29;101054.75;5010941;28;19975;-84
2022/11/14 14:10:05;;;;;;;48.25;22.10;;;;;;;7.18;99.84;101053.03;5010155;28;20499;-83
2022/11/14 14:13:00;;;;;;;50.08;23.05;;;;;;;7.10;99.35;101053.94;5005302;28;20032;-84
2022/11/14 14:15:36;;;;;;;54.13;23.00;;;;;;;7.05;99.99;101047.13;5009459;28;20029;-84
2022/11/14 14:18:20;;;;;;;50.65;23.40;;;;;;;7.04;100.00;101046.25;5010325;28;20509;-84
2022/11/14 14:20:53;;;;;;;56.13;24.08;;;;;;;7.01;100.00;101045.44;5005766;28;20117;-83
2022/11/14 14:23:41;;;;;;;52.70;23.90;;;;;;;7.04;100.00;101042.81;5009699;28;20549;-84
2022/11/14 14:26:25;;;;;;;53.47;23.33;;;;;;;7.06;100.00;101036.81;5009494;28;20056;-84
2022/11/14 14:29:02;;;;;;;56.78;24.38;;;;;;;7.10;100.00;101047.94;4994824;28;20018;-84
2022/11/14 14:31:36;;;;;;;51.92;24.60;;;;;;;7.12;100.00;101043.63;5013476;28;20083;-84
2022/11/14 14:34:18;;;;;;;54.80;25.33;;;;;;;7.07;100.00;101047.97;5008473;28;20065;-84
2022/11/14 14:36:49;;;;;;;54.47;25.25;;;;;;;7.00;100.00;101036.00;5010515;28;20112;-84
2022/11/14 14:39:15;;;;;;;59.45;26.60;;;;;;;6.95;100.00;101038.59;5009769;28;20096;-85
2022/11/14 14:41:40;;;;;;;54.40;24.35;;;;;;;6.90;100.00;101040.31;5009732;28;20029;-84
2022/11/14 14:44:16;;;;;;;54.10;25.05;;;;;;;6.88;100.00;101028.34;5009327;28;20022;-84
2022/11/14 14:46:41;;;;;;;47.47;23.30;;;;;;;6.86;100.00;101033.50;5010173;28;20278;-84
2022/11/14 14:49:06;;;;;;;51.70;24.60;;;;;;;6.83;100.00;101025.75;5010334;28;20105;-84
2022/11/14 14:51:34;;;;;;;54.30;25.88;;;;;;;6.80;100.00;101025.81;4991858;28;20038;-84
2022/11/14 14:54:00;;;;;;;52.88;25.35;;;;;;;6.78;100.00;101027.50;5010085;28;20065;-84
2022/11/14 14:56:25;;;;;;;52.28;24.90;;;;;;;6.70;100.00;101014.66;4987220;28;20108;-84
2022/11/14 14:58:51;;;;;;;53.88;24.85;;;;;;;6.66;100.00;101012.13;5010826;28;20192;-84
2022/11/14 15:01:19;;;;;;;54.05;24.67;;;;;;;6.64;100.00;101017.28;4995641;28;20113;-84
2022/11/14 15:03:52;;;;;;;55.50;25.98;;;;;;;6.61;100.00;101014.75;5007602;28;20496;-84
2022/11/14 15:06:29;;;;;;;52.85;25.25;;;;;;;6.60;100.00;101005.28;5010975;28;20018;-84
2022/11/14 15:09:21;;;;;;;50.13;24.42;;;;;;;6.65;100.00;100998.41;5009838;28;20038;-84
2022/11/14 15:11:50;;;;;;;55.10;24.92;;;;;;;6.69;100.00;100994.94;5010617;28;20071;-84
2022/11/14 15:14:20;;;;;;;55.25;24.98;;;;;;;6.69;100.00;100988.91;5007792;28;20105;-84
2022/11/14 15:16:49;;;;;;;52.13;26.45;;;;;;;6.69;100.00;100981.19;5005739;28;20026;-84
2022/11/14 15:19:17;;;;;;;53.90;25.60;;;;;;;6.63;100.00;100982.09;5008776;28;20038;-84
2022/11/14 15:21:43;;;;;;;47.45;24.65;;;;;;;6.59;100.00;100980.41;5010289;28;20084;-84
2022/11/14 15:24:15;;;;;;;49.10;23.35;;;;;;;6.52;100.00;100980.44;5007652;28;20502;-84
2022/11/14 15:26:44;;;;;;;47.05;23.80;;;;;;;6.44;100.00;100988.19;5004155;28;20048;-84
2022/11/14 15:29:17;;;;;;;46.17;22.63;;;;;;;6.35;100.00;100991.66;5001508;28;20669;-84
2022/11/14 15:31:47;;;;;;;43.60;22.25;;;;;;;6.26;100.00;100996.00;5009001;28;20112;-84
2022/11/14 15:34:31;;;;;;;45.88;21.35;;;;;;;6.18;100.00;101006.31;5003119;28;20025;-84
2022/11/14 15:37:20;;;;;;;40.45;20.20;;;;;;;6.15;100.00;101011.47;5009155;28;20080;-84
2022/11/14 15:39:47;;;;;;;42.03;21.00;;;;;;;6.02;100.00;101001.22;5001388;28;20044;-85
2022/11/14 15:42:17;;;;;;;37.75;19.70;;;;;;;5.94;100.00;101007.22;5014522;28;20064;-85
2022/11/14 15:44:45;;;;;;;40.53;20.60;;;;;;;5.89;100.00;101008.09;5010529;28;20025;-85
2022/11/14 15:47:24;;;;;;;35.90;19.00;;;;;;;5.83;100.00;101002.94;5010705;28;20033;-86
2022/11/14 15:50:01;;;;;;;35.85;19.02;;;;;;;5.72;100.00;100999.53;5009410;28;20025;-79
2022/11/14 15:52:34;;;;;;;38.22;18.13;;;;;;;5.62;100.00;100988.41;5008991;28;20041;-79
2022/11/14 15:54:59;;;;;;;33.35;17.38;;;;;;;5.53;100.00;100980.69;5009655;28;20407;-79
2022/11/14 15:57:24;;;;;;;33.33;17.42;;;;;;;5.45;100.00;100980.72;5009416;28;20501;-79
2022/11/14 15:59:50;;;;;;;33.85;17.60;;;;;;;5.40;100.00;100982.41;5008564;28;20116;-79
2022/11/14 16:02:27;;;;;;;31.15;16.15;;;;;;;5.33;100.00;100987.56;5008206;28;20510;-79
2022/11/14 16:04:53;;;;;;;31.20;16.25;;;;;;;5.27;100.00;101002.97;5006085;28;20426;-79
2022/11/14 16:07:19;;;;;;;32.17;16.38;;;;;;;5.22;100.00;100994.41;5007591;28;20173;-79
2022/11/14 16:09:45;;;;;;;31.23;15.95;;;;;;;5.12;100.00;100999.53;5007757;28;20116;-79
2022/11/14 16:12:10;;;;;;;29.10;15.75;;;;;;;5.03;100.00;100998.69;5008255;28;20029;-79
2022/11/14 16:14:35;;;;;;;32.40;16.05;;;;;;;4.94;100.00;101006.38;5008139;28;20160;-79
2022/11/14 16:17:01;;;;;;;33.63;15.35;;;;;;;4.84;100.00;101007.22;5009129;28;20037;-79
2022/11/14 16:19:26;;;;;;;30.63;15.75;;;;;;;4.78;100.00;101001.19;5008165;28;20022;-79
2022/11/14 16:21:52;;;;;;;31.00;15.50;;;;;;;4.71;100.00;101014.88;5006440;28;20411;-80
2022/11/14 16:24:20;;;;;;;36.38;16.13;;;;;;;4.64;100.00;101009.75;5008872;28;20100;-79
2022/11/14 16:26:46;;;;;;;32.05;15.15;;;;;;;4.52;100.00;101001.97;5007773;28;20036;-80
2022/11/14 16:29:12;;;;;;;30.13;14.88;;;;;;;4.48;100.00;101010.53;5008230;28;20030;-79
2022/11/14 16:31:37;;;;;;;29.75;15.45;;;;;;;4.42;100.00;101010.50;4991211;28;20029;-79
2022/11/14 16:34:03;;;;;;;26.92;15.20;;;;;;;4.36;100.00;101008.78;5007924;28;20105;-79
2022/11/14 16:36:29;;;;;;;33.17;16.23;;;;;;;4.28;100.00;101005.31;5012500;28;20389;-79
2022/11/14 16:39:00;;;;;;;31.75;15.63;;;;;;;4.22;100.00;101000.16;5007760;28;20049;-80
2022/11/14 16:41:26;;;;;;;30.63;15.50;;;;;;;4.17;100.00;100996.69;5007788;28;20107;-80
2022/11/14 16:43:55;;;;;;;33.85;15.40;;;;;;;4.13;100.00;100994.97;5007558;28;20439;-80
2022/11/14 16:46:22;;;;;;;34.03;15.95;;;;;;;4.07;100.00;100993.25;5010565;28;20281;-80
2022/11/14 16:48:48;;;;;;;32.58;15.48;;;;;;;3.98;100.00;100996.59;5006201;28;20030;-80
2022/11/14 16:51:13;;;;;;;32.65;15.75;;;;;;;3.93;100.00;100995.72;5012129;28;20080;-80
2022/11/14 16:53:38;;;;;;;31.85;15.57;;;;;;;3.89;100.00;100988.03;5011579;28;20476;-80
2022/11/14 16:56:04;;;;;;;33.40;16.05;;;;;;;3.86;100.00;100993.97;4996066;28;20030;-80
2022/11/14 16:58:29;;;;;;;31.42;16.35;;;;;;;3.83;100.00;100996.50;4998521;28;20022;-79
2022/11/14 17:00:55;;;;;;;33.13;16.02;;;;;;;3.77;100.00;100996.47;5010877;28;20034;-79
2022/11/14 17:03:21;;;;;;;30.50;15.50;;;;;;;3.75;100.00;100992.22;5010878;28;20049;-79
2022/11/14 17:05:50;;;;;;;29.77;15.02;;;;;;;3.72;100.00;100994.75;5011844;28;20033;-80
2022/11/14 17:08:16;;;;;;;31.08;14.82;;;;;;;3.69;100.00;100992.13;5010190;28;20494;-79
2022/11/14 17:10:43;;;;;;;33.47;15.98;;;;;;;3.64;100.00;100996.38;5011018;28;20480;-79
2022/11/14 17:13:08;;;;;;;35.75;16.17;;;;;;;3.57;100.00;100986.09;5010667;28;20117;-79
2022/11/14 17:15:34;;;;;;;35.97;15.68;;;;;;;3.53;100.00;100991.19;5012274;28;20414;-79
2022/11/14 17:17:59;;;;;;;32.20;15.07;;;;;;;3.51;100.00;100996.31;4992891;28;20034;-79
2022/11/14 17:20:25;;;;;;;34.95;15.65;;;;;;;3.48;100.00;100996.25;5011163;28;20053;-79
2022/11/14 17:22:50;;;;;;;33.53;15.18;;;;;;;3.45;100.00;101000.53;5013494;28;20126;-79
2022/11/14 17:25:16;;;;;;;30.23;14.43;;;;;;;3.41;100.00;101001.34;5010584;28;20025;-80
2022/11/14 17:27:41;;;;;;;32.92;15.30;;;;;;;3.34;100.00;100994.47;5008740;28;20037;-80
2022/11/14 17:30:10;;;;;;;35.92;16.50;;;;;;;3.31;100.00;101002.97;5008845;28;20022;-80
2022/11/14 17:32:35;;;;;;;30.52;14.88;;;;;;;3.25;100.00;100997.81;5008267;28;20010;-80
2022/11/14 17:35:01;;;;;;;33.10;15.73;;;;;;;3.23;100.00;100999.47;5020397;28;20381;-80
2022/11/14 17:37:26;;;;;;;31.27;15.25;;;;;;;3.22;100.00;101002.03;5010874;28;20091;-80
2022/11/14 17:39:51;;;;;;;33.80;15.35;;;;;;;3.17;100.00;101002.00;5011259;28;20262;-80
2022/11/14 17:42:17;;;;;;;33.53;15.13;;;;;;;3.11;100.00;100991.72;4993558;28;20042;-80
2022/11/14 17:44:42;;;;;;;37.88;16.77;;;;;;;3.07;100.00;100990.81;5010151;28;20083;-80
2022/11/14 17:47:07;;;;;;;33.45;16.15;;;;;;;3.08;100.00;101002.75;5008414;28;20125;-80
2022/11/14 17:49:33;;;;;;;36.95;17.70;;;;;;;3.04;100.00;101002.72;5004371;28;20054;-80
2022/11/14 17:51:58;;;;;;;34.17;16.67;;;;;;;3.00;100.00;100996.72;5010652;28;20057;-81
2022/11/14 17:54:23;;;;;;;36.75;17.42;;;;;;;2.94;100.00;100988.13;5009350;28;20074;-80
2022/11/14 17:56:49;;;;;;;38.45;17.67;;;;;;;2.95;100.00;100994.94;5007928;28;20034;-80
2022/11/14 17:59:14;;;;;;;33.40;16.77;;;;;;;2.91;100.00;100990.66;5008144;28;20022;-80
2022/11/14 18:01:39;;;;;;;36.55;16.50;;;;;;;2.90;100.00;100989.81;5007250;28;20020;-80
2022/11/14 18:04:05;;;;;;;34.40;16.80;;;;;;;2.87;100.00;100991.47;5009810;28;20403;-80
2022/11/14 18:06:32;;;;;;;34.65;17.00;;;;;;;2.83;100.00;100984.59;5008349;28;20033;-80
2022/11/14 18:08:59;;;;;;;38.42;17.15;;;;;;;2.81;100.00;100988.84;5010919;28;20061;-80
2022/11/14 18:11:25;;;;;;;40.90;17.98;;;;;;;2.75;100.00;100985.38;5010922;28;20037;-81
2022/11/14 18:13:54;;;;;;;41.45;17.75;;;;;;;2.75;100.00;100987.09;5013070;28;20034;-81
2022/11/14 18:16:20;;;;;;;41.15;17.83;;;;;;;2.69;100.00;100980.19;5008258;28;20033;-81
2022/11/14 18:18:45;;;;;;;47.20;19.95;;;;;;;2.67;100.00;100979.31;5009141;28;20032;-81
2022/11/14 18:21:16;;;;;;;41.35;19.38;;;;;;;2.65;100.00;100986.16;4990398;28;20060;-81
2022/11/14 18:23:42;;;;;;;42.42;19.45;;;;;;;2.62;100.00;100983.53;5009267;28;20038;-81
2022/11/14 18:26:12;;;;;;;41.42;19.08;;;;;;;2.60;100.00;100987.78;5008217;28;20030;-81
2022/11/14 18:28:38;;;;;;;43.88;18.95;;;;;;;2.56;100.00;100978.34;5011071;28;20027;-81
2022/11/14 18:31:08;;;;;;;44.08;19.05;;;;;;;2.52;100.00;100976.63;4992668;28;20029;-82
2022/11/14 18:33:34;;;;;;;41.17;18.45;;;;;;;2.52;100.00;100978.31;5008790;28;20029;-81
2022/11/14 18:36:01;;;;;;;41.00;17.75;;;;;;;2.48;100.00;100974.00;5010312;28;20038;-82
2022/11/14 18:38:31;;;;;;;42.35;18.02;;;;;;;2.45;100.00;100971.41;5013189;28;20060;-81
2022/11/14 18:41:04;;;;;;;38.63;17.58;;;;;;;2.42;100.00;100979.03;5009789;28;20057;-81
2022/11/14 18:43:31;;;;;;;38.97;17.88;;;;;;;2.38;100.00;100980.72;4992072;28;20038;-81
2022/11/14 18:46:13;;;;;;;39.78;17.85;;;;;;;2.35;100.00;100984.09;5009467;28;20101;-81
2022/11/14 18:48:42;;;;;;;39.72;16.95;;;;;;;2.36;100.00;100987.50;5008159;28;20029;-82
2022/11/14 18:51:11;;;;;;;39.55;17.70;;;;;;;2.36;100.00;100970.47;5005422;28;20029;-81
2022/11/14 18:53:36;;;;;;;44.10;18.67;;;;;;;2.40;100.00;100968.78;5008629;28;20022;-81
2022/11/14 18:56:12;;;;;;;36.63;17.10;;;;;;;2.42;100.00;100968.81;4996082;28;20055;-82
2022/11/14 18:58:40;;;;;;;39.78;17.70;;;;;;;2.50;100.00;100974.88;5008867;28;20037;-81
2022/11/14 19:01:10;;;;;;;40.60;17.67;;;;;;;2.57;100.00;100958.75;5010089;28;20025;-81
2022/11/14 19:03:36;;;;;;;38.85;17.52;;;;;;;2.66;100.00;100969.91;5008436;28;20437;-81
2022/11/14 19:06:03;;;;;;;33.03;15.98;;;;;;;2.69;100.00;100967.41;5009766;28;20036;-80
2022/11/14 19:08:28;;;;;;;35.95;15.90;;;;;;;2.67;100.00;100970.78;5008261;28;20034;-80
2022/11/14 19:11:02;;;;;;;35.92;16.10;;;;;;;2.67;100.00;100968.22;5009810;28;20041;-80
2022/11/14 19:13:28;;;;;;;37.17;16.35;;;;;;;2.71;100.00;100964.88;5007872;28;20447;-81
2022/11/14 19:15:53;;;;;;;37.28;17.00;;;;;;;2.75;100.00;100959.78;5007412;28;20538;-81
2022/11/14 19:18:19;;;;;;;36.67;16.27;;;;;;;2.80;100.00;100964.13;5009557;28;20030;-81
2022/11/14 19:20:57;;;;;;;32.58;16.05;;;;;;;2.83;100.00;100970.09;5008438;28;20427;-81
2022/11/14 19:23:23;;;;;;;37.22;16.88;;;;;;;2.88;100.00;100975.25;4991891;28;20022;-82
2022/11/14 19:25:48;;;;;;;36.50;16.38;;;;;;;2.88;100.00;100976.13;5008610;28;20376;-82
2022/11/14 19:28:14;;;;;;;37.00;16.95;;;;;;;2.85;100.00;100976.09;4991395;28;20112;-82
2022/11/14 19:30:39;;;;;;;35.78;16.85;;;;;;;2.81;100.00;100976.91;4995320;28;20399;-81
2022/11/14 19:33:04;;;;;;;37.42;18.25;;;;;;;2.82;100.00;100981.19;5011908;28;20098;-80
2022/11/14 19:35:30;;;;;;;40.92;19.00;;;;;;;2.85;100.00;100973.53;5008617;28;20038;-81
2022/11/14 19:37:55;;;;;;;42.10;19.65;;;;;;;2.91;100.00;100977.84;5009051;28;20033;-81
2022/11/14 19:40:20;;;;;;;41.72;19.77;;;;;;;3.00;100.00;100976.22;5006525;28;20559;-80
2022/11/14 19:42:46;;;;;;;42.47;20.42;;;;;;;3.06;100.00;100978.00;5010503;28;20034;-80
2022/11/14 19:45:11;;;;;;;42.45;19.30;;;;;;;3.10;100.00;100978.03;5010521;28;20026;-80
2022/11/14 19:47:36;;;;;;;42.10;19.80;;;;;;;3.11;100.00;100978.91;5011426;28;20109;-80
2022/11/14 19:50:02;;;;;;;41.85;19.77;;;;;;;3.11;100.00;100981.47;5007675;28;20025;-80
2022/11/14 19:52:27;;;;;;;42.63;19.90;;;;;;;3.16;100.00;100978.09;5009916;28;20029;-80
2022/11/14 19:54:53;;;;;;;42.78;19.40;;;;;;;3.24;100.00;100984.97;5006564;28;20029;-80
2022/11/14 19:57:18;;;;;;;54.38;25.80;;;;;;;3.39;100.00;100980.84;5008213;28;20021;-80
2022/11/14 19:59:43;;;;;;;54.10;25.08;;;;;;;3.53;100.00;100980.94;5002462;28;20048;-79
2022/11/14 20:02:12;;;;;;;50.58;24.80;;;;;;;3.63;100.00;100969.03;5009719;28;20080;-79
2022/11/14 20:04:38;;;;;;;48.40;24.05;;;;;;;3.73;100.00;100965.69;5009017;28;20034;-80
2022/11/14 20:07:03;;;;;;;46.22;22.25;;;;;;;3.84;100.00;100964.03;5009046;28;20099;-80
2022/11/14 20:09:29;;;;;;;44.55;20.15;;;;;;;3.94;100.00;100968.38;5015868;28;20484;-80
2022/11/14 20:11:54;;;;;;;32.72;16.05;;;;;;;4.06;100.00;100967.56;5008751;28;20091;-79
2022/11/14 20:14:19;;;;;;;34.38;15.55;;;;;;;4.16;100.00;100961.66;5009983;28;20022;-79
2022/11/14 20:16:45;;;;;;;32.35;15.38;;;;;;;4.26;100.00;100948.84;5008796;28;20034;-79
2022/11/14 20:19:12;;;;;;;36.95;16.48;;;;;;;4.35;100.00;100953.16;5009148;28;20030;-79
2022/11/14 20:21:37;;;;;;;44.45;19.25;;;;;;;4.45;100.00;100956.59;4990341;28;20030;-79
2022/11/14 20:24:03;;;;;;;39.05;17.80;;;;;;;4.52;100.00;100948.06;5013223;28;20036;-79
2022/11/14 20:26:28;;;;;;;38.75;17.58;;;;;;;4.61;100.00;100954.09;5012525;28;20036;-79
2022/11/14 20:28:54;;;;;;;32.85;15.65;;;;;;;4.68;100.00;100955.81;5011841;28;20029;-79
2022/11/14 20:31:24;;;;;;;33.67;15.57;;;;;;;4.74;100.00;100939.56;5012941;28;20113;-79
2022/11/14 20:33:52;;;;;;;32.67;15.38;;;;;;;4.82;100.00;100947.28;5011801;28;20097;-79
2022/11/14 20:36:20;;;;;;;32.13;14.85;;;;;;;4.89;100.00;100951.56;5011104;28;20040;-79
2022/11/14 20:38:46;;;;;;;31.63;15.10;;;;;;;4.94;100.00;100942.16;5012603;28;20109;-79
2022/11/14 20:41:12;;;;;;;32.17;14.82;;;;;;;4.98;100.00;100941.31;5011183;28;20133;-79
2022/11/14 20:43:37;;;;;;;35.28;15.15;;;;;;;5.05;100.00;100943.03;5010590;28;20070;-79
2022/11/14 20:46:05;;;;;;;29.65;13.60;;;;;;;5.11;100.00;100937.91;5011001;28;20088;-79
2022/11/14 20:48:32;;;;;;;30.90;14.18;;;;;;;5.16;100.00;100931.03;5013806;28;20032;-79
2022/11/14 20:51:06;;;;;;;32.35;14.35;;;;;;;5.21;100.00;100938.72;4994848;28;20100;-79
2022/11/14 20:53:33;;;;;;;32.53;14.85;;;;;;;5.21;100.00;100929.31;5011659;28;20133;-79
2022/11/14 20:55:58;;;;;;;35.08;15.80;;;;;;;5.29;100.00;100934.44;5009300;28;20395;-79
2022/11/14 20:58:25;;;;;;;33.05;15.05;;;;;;;5.30;100.00;100923.31;4994898;28;20468;-79
2022/11/14 21:00:50;;;;;;;37.10;16.50;;;;;;;5.36;100.00;100928.44;5010157;28;20030;-79
2022/11/14 21:03:17;;;;;;;35.70;18.30;;;;;;;5.36;100.00;100920.75;5008557;28;20048;-79
2022/11/14 21:05:42;;;;;;;34.33;14.70;;;;;;;5.41;100.00;100925.00;5011989;28;20021;-79
2022/11/14 21:08:08;;;;;;;38.95;19.27;;;;;;;5.43;100.00;100920.72;5011685;28;20407;-79
2022/11/14 21:10:44;;;;;;;52.47;26.55;;;;;;;5.49;100.00;100919.84;5009603;28;20087;-79
2022/11/14 21:15:58;;;;;;;41.03;19.52;;;;;;;5.54;100.00;100913.84;5009290;28;20110;-80
2022/11/14 21:18:24;;;;;;;32.97;15.75;;;;;;;5.59;100.00;100919.00;5010343;28;20080;-80
2022/11/14 21:21:04;;;;;;;35.72;15.63;;;;;;;5.61;100.00;100927.53;5010388;28;20037;-80
2022/11/14 21:23:29;;;;;;;37.70;16.55;;;;;;;5.65;100.00;100910.41;5011407;28;20030;-80
2022/11/14 21:26:16;;;;;;;35.67;17.60;;;;;;;5.67;100.00;100911.25;5010209;28;20157;-80
2022/11/14 21:28:44;;;;;;;34.05;15.85;;;;;;;5.67;100.00;100911.25;5004962;28;20424;-80
2022/11/14 21:31:14;;;;;;;33.53;15.07;;;;;;;5.74;100.00;100918.06;5010145;28;20030;-79
2022/11/14 21:33:39;;;;;;;36.13;16.17;;;;;;;5.75;100.00;100910.38;5004130;28;20170;-79
2022/11/14 21:36:06;;;;;;;33.05;14.73;;;;;;;5.77;100.00;100915.50;5008715;28;20112;-79
2022/11/14 21:38:32;;;;;;;35.03;15.68;;;;;;;5.81;100.00;100917.19;5008732;28;20484;-79
2022/11/14 21:40:57;;;;;;;36.72;15.73;;;;;;;5.83;100.00;100912.91;4994133;28;20030;-79
2022/11/14 21:43:22;;;;;;;56.30;29.48;;;;;;;5.85;100.00;100922.34;5008653;28;20029;-79
2022/11/14 21:46:00;;;;;;;40.22;17.00;;;;;;;5.90;100.00;100922.34;5010261;28;20511;-79
2022/11/14 21:48:29;;;;;;;40.38;19.27;;;;;;;5.92;100.00;100915.50;5010780;28;20080;-79
2022/11/14 21:51:10;;;;;;;33.97;15.52;;;;;;;5.95;100.00;100916.34;5010398;28;20392;-79
2022/11/14 21:53:37;;;;;;;35.15;15.82;;;;;;;5.98;100.00;100907.75;5010474;28;20507;-79
2022/11/14 21:56:27;;;;;;;38.92;16.67;;;;;;;6.03;100.00;100907.72;4995209;28;20117;-79